createdAt,value
2019-02-04T00:00:38.348Z,13.93
2019-02-04T00:03:10.537Z,15.38
2019-02-04T00:05:43.753Z,13.63
2019-02-04T00:08:15.834Z,14.10
2019-02-04T00:10:48.691Z,14.10
2019-02-04T00:13:22.612Z,15.17
2019-02-04T00:15:53.952Z,16.00
2019-02-04T00:18:27.789Z,14.20
2019-02-04T00:21:03.509Z,15.90
2019-02-04T00:23:35.839Z,15.15
2019-02-04T00:26:07.183Z,15.40
2019-02-04T00:28:39.973Z,15.10
2019-02-04T00:31:12.802Z,15.47
2019-02-04T00:33:44.777Z,15.03
2019-02-04T00:36:16.246Z,14.77
2019-02-04T00:38:47.494Z,15.13
2019-02-04T00:41:18.788Z,15.08
2019-02-04T00:43:51.902Z,14.67
2019-02-04T00:46:25.906Z,13.50
2019-02-04T00:48:57.164Z,13.80
2019-02-04T00:51:29.332Z,14.20
2019-02-04T00:54:02.008Z,14.43
2019-02-04T00:56:36.025Z,13.90
2019-02-04T00:59:09.705Z,13.80
2019-02-04T01:01:42.744Z,16.40
2019-02-04T01:04:15.805Z,13.93
2019-02-04T01:06:48.988Z,15.10
2019-02-04T01:09:22.094Z,14.07
2019-02-04T01:11:56.104Z,14.70
2019-02-04T01:14:27.935Z,15.00
2019-02-04T01:17:03.415Z,15.80
2019-02-04T01:19:35.215Z,14.77
2019-02-04T01:22:09.170Z,15.53
2019-02-04T01:24:40.945Z,16.20
2019-02-04T01:27:14.121Z,15.20
2019-02-04T01:29:45.981Z,15.10
2019-02-04T01:32:19.064Z,14.50
2019-02-04T01:34:53.269Z,14.80
2019-02-04T01:37:25.541Z,13.98
2019-02-04T01:39:58.233Z,14.70
2019-02-04T01:42:30.456Z,15.00
2019-02-04T01:45:03.180Z,14.87
2019-02-04T01:47:36.389Z,15.47
2019-02-04T01:50:09.783Z,14.50
2019-02-04T01:52:42.165Z,13.73
2019-02-04T01:55:16.220Z,13.97
2019-02-04T01:57:52.234Z,14.40
2019-02-04T02:00:31.445Z,13.03
2019-02-04T02:03:03.899Z,13.30
2019-02-04T02:05:35.202Z,13.53
2019-02-04T02:08:08.500Z,14.13
2019-02-04T02:10:42.460Z,12.40
2019-02-04T02:13:14.246Z,12.83
2019-02-04T02:15:47.428Z,12.70
2019-02-04T02:18:22.218Z,13.83
2019-02-04T02:20:55.245Z,12.40
2019-02-04T02:23:26.560Z,13.32
2019-02-04T02:25:57.805Z,13.73
2019-02-04T02:28:29.467Z,13.40
2019-02-04T02:31:02.474Z,13.83
2019-02-04T02:33:36.384Z,13.90
2019-02-04T02:36:10.301Z,13.20
2019-02-04T02:38:41.565Z,12.70
2019-02-04T02:41:17.144Z,13.80
2019-02-04T02:43:49.476Z,12.97
2019-02-04T02:46:20.728Z,14.55
2019-02-04T02:48:54.537Z,12.63
2019-02-04T02:51:28.508Z,13.30
2019-02-04T02:54:02.458Z,13.40
2019-02-04T02:56:35.404Z,14.30
2019-02-04T02:59:07.434Z,13.70
2019-02-04T03:01:41.299Z,13.90
2019-02-04T03:04:12.558Z,12.50
2019-02-04T03:06:46.447Z,12.80
2019-02-04T03:09:22.033Z,13.88
2019-02-04T03:11:54.449Z,13.43
2019-02-04T03:14:28.530Z,13.17
2019-02-04T03:17:02.614Z,13.20
2019-02-04T03:19:36.533Z,14.60
2019-02-04T03:22:10.596Z,13.77
2019-02-04T03:24:46.289Z,14.30
2019-02-04T03:27:19.794Z,13.03
2019-02-04T03:29:52.350Z,13.40
2019-02-04T03:32:25.520Z,14.07
2019-02-04T03:34:59.474Z,13.37
2019-02-04T03:37:32.792Z,13.23
2019-02-04T03:40:05.814Z,13.47
2019-02-04T03:42:38.820Z,13.90
2019-02-04T03:45:15.376Z,13.00
2019-02-04T03:47:46.645Z,13.70
2019-02-04T03:50:20.724Z,12.80
2019-02-04T03:52:54.921Z,12.82
2019-02-04T03:55:28.960Z,12.45
2019-02-04T03:58:02.760Z,13.40
2019-02-04T04:00:36.056Z,13.22
2019-02-04T04:03:07.857Z,13.15
2019-02-04T04:05:41.802Z,12.90
2019-02-04T04:08:15.748Z,12.50
2019-02-04T04:10:49.799Z,12.97
2019-02-04T04:13:23.855Z,13.70
2019-02-04T04:15:55.104Z,13.50
2019-02-04T04:18:28.712Z,13.73
2019-02-04T04:21:00.792Z,14.20
2019-02-04T04:23:32.893Z,14.40
2019-02-04T04:26:04.916Z,15.28
2019-02-04T04:28:38.904Z,14.10
2019-02-04T04:31:14.532Z,13.90
2019-02-04T04:33:45.797Z,13.43
2019-02-04T04:36:19.812Z,14.90
2019-02-04T04:38:54.033Z,15.17
2019-02-04T04:41:27.844Z,14.80
2019-02-04T04:43:59.924Z,14.00
2019-02-04T04:46:35.426Z,15.57
2019-02-04T04:49:06.957Z,15.93
2019-02-04T04:51:38.486Z,15.63
2019-02-04T04:54:09.742Z,14.63
2019-02-04T04:56:43.081Z,15.10
2019-02-04T04:59:17.052Z,15.77
2019-02-04T05:01:52.684Z,14.75
2019-02-04T05:04:25.054Z,15.97
2019-02-04T05:07:00.715Z,15.90
2019-02-04T05:09:32.958Z,15.70
2019-02-04T05:12:04.302Z,15.87
2019-02-04T05:14:37.991Z,14.67
2019-02-04T05:17:12.760Z,13.85
2019-02-04T05:19:46.149Z,15.40
2019-02-04T05:22:20.160Z,16.30
2019-02-04T05:24:51.445Z,15.97
2019-02-04T05:27:25.096Z,15.43
2019-02-04T05:29:57.180Z,14.43
2019-02-04T05:32:29.515Z,14.60
2019-02-04T05:35:02.201Z,15.33
2019-02-04T05:37:37.931Z,15.83
2019-02-04T05:40:11.877Z,14.27
2019-02-04T05:42:44.268Z,15.83
2019-02-04T05:45:17.031Z,14.87
2019-02-04T05:47:49.215Z,16.40
2019-02-04T05:50:23.202Z,14.73
2019-02-04T05:52:57.217Z,16.17
2019-02-04T05:55:30.644Z,15.85
2019-02-04T05:58:02.173Z,17.33
2019-02-04T06:00:42.113Z,16.73
2019-02-04T06:03:13.485Z,17.80
2019-02-04T06:05:46.271Z,15.23
2019-02-04T06:08:20.268Z,16.40
2019-02-04T06:10:54.277Z,16.70
2019-02-04T06:13:27.260Z,16.82
2019-02-04T06:16:00.438Z,16.00
2019-02-04T06:18:32.005Z,18.30
2019-02-04T06:21:05.204Z,17.10
2019-02-04T06:23:40.382Z,18.23
2019-02-04T06:26:12.424Z,17.60
2019-02-04T06:28:43.684Z,18.30
2019-02-04T06:31:15.362Z,17.30
2019-02-04T06:33:48.295Z,20.40
2019-02-04T06:36:20.335Z,20.87
2019-02-04T06:38:55.969Z,23.47
2019-02-04T06:41:28.469Z,21.77
2019-02-04T06:44:01.457Z,22.43
2019-02-04T06:46:33.605Z,19.17
2019-02-04T06:49:12.386Z,19.43
2019-02-04T06:51:41.039Z,18.50
2019-02-04T06:54:12.378Z,20.33
2019-02-04T06:56:45.497Z,17.27
2019-02-04T06:59:19.502Z,19.57
2019-02-04T07:01:57.708Z,18.35
2019-02-04T07:04:30.088Z,17.03
2019-02-04T07:07:01.781Z,18.13
2019-02-04T07:09:33.150Z,16.50
2019-02-04T07:12:06.641Z,16.77
2019-02-04T07:14:40.678Z,18.47
2019-02-04T07:17:14.782Z,17.37
2019-02-04T07:19:48.805Z,17.70
2019-02-04T07:22:22.727Z,17.13
2019-02-04T07:24:56.629Z,15.83
2019-02-04T07:27:30.070Z,17.60
2019-02-04T07:30:01.872Z,16.40
2019-02-04T07:32:33.599Z,17.00
2019-02-04T07:35:07.626Z,17.10
2019-02-04T07:37:39.647Z,17.90
2019-02-04T07:40:16.488Z,19.37
2019-02-04T07:42:50.900Z,16.67
2019-02-04T07:45:24.799Z,19.70
2019-02-04T07:47:58.610Z,17.57
2019-02-04T07:50:30.055Z,17.90
2019-02-04T07:53:05.312Z,18.40
2019-02-04T07:55:37.707Z,19.12
2019-02-04T07:58:11.680Z,19.07
2019-02-04T08:00:45.799Z,20.53
2019-02-04T08:03:19.824Z,17.23
2019-02-04T08:05:51.071Z,17.47
2019-02-04T08:08:23.834Z,17.20
2019-02-04T08:10:55.441Z,15.97
2019-02-04T08:13:28.967Z,16.00
2019-02-04T08:16:04.471Z,16.37
2019-02-04T08:18:37.837Z,17.43
2019-02-04T08:21:11.001Z,16.43
2019-02-04T08:23:44.846Z,16.03
2019-02-04T08:26:16.183Z,15.83
2019-02-04T08:28:47.455Z,15.43
2019-02-04T08:31:21.050Z,16.23
2019-02-04T08:33:54.951Z,14.47
2019-02-04T08:36:26.217Z,17.03
2019-02-04T08:39:00.691Z,16.00
2019-02-04T08:41:32.992Z,16.10
2019-02-04T08:44:05.298Z,16.63
2019-02-04T08:46:38.621Z,16.23
2019-02-04T08:49:12.172Z,17.67
2019-02-04T08:51:47.892Z,16.87
2019-02-04T08:54:20.061Z,16.63
2019-02-04T08:56:55.558Z,17.57
2019-02-04T08:59:28.093Z,16.43
2019-02-04T09:02:02.202Z,16.97
2019-02-04T09:04:37.139Z,16.30
2019-02-04T09:07:09.254Z,17.77
2019-02-04T09:09:43.035Z,19.02
2019-02-04T09:12:17.222Z,17.90
2019-02-04T09:14:48.681Z,17.03
2019-02-04T09:17:19.937Z,15.63
2019-02-04T09:19:53.223Z,16.47
2019-02-04T09:22:24.479Z,17.67
2019-02-04T09:24:55.818Z,18.57
2019-02-04T09:27:27.154Z,16.12
2019-02-04T09:30:00.338Z,17.23
2019-02-04T09:32:33.365Z,17.70
2019-02-04T09:35:05.901Z,16.90
2019-02-04T09:37:39.361Z,17.50
2019-02-04T09:40:19.580Z,16.70
2019-02-04T09:42:53.275Z,17.30
2019-02-04T09:45:27.879Z,17.63
2019-02-04T09:48:04.824Z,16.77
2019-02-04T09:50:36.351Z,18.27
2019-02-04T09:53:09.686Z,17.90
2019-02-04T09:55:43.365Z,18.47
2019-02-04T09:58:18.947Z,18.47
2019-02-04T10:00:51.329Z,18.87
2019-02-04T10:03:22.642Z,19.30
2019-02-04T10:05:53.888Z,19.30
2019-02-04T10:08:27.444Z,17.60
2019-02-04T10:11:01.527Z,17.83
2019-02-04T10:13:33.547Z,18.80
2019-02-04T10:16:07.545Z,17.30
2019-02-04T10:18:38.797Z,19.60
2019-02-04T10:21:11.529Z,18.43
2019-02-04T10:23:45.453Z,17.57
2019-02-04T10:26:16.698Z,16.77
2019-02-04T10:28:50.462Z,17.67
2019-02-04T10:31:24.142Z,19.20
2019-02-04T10:33:55.421Z,17.43
2019-02-04T10:36:29.468Z,17.47
2019-02-04T10:39:09.277Z,17.33
2019-02-04T10:41:40.829Z,17.27
2019-02-04T10:44:14.668Z,16.83
2019-02-04T10:46:48.640Z,17.90
2019-02-04T10:49:22.736Z,17.40
2019-02-04T10:51:55.627Z,18.50
2019-02-04T10:54:29.272Z,17.13
2019-02-04T10:57:01.677Z,16.30
2019-02-04T10:59:33.665Z,16.40
2019-02-04T11:02:06.127Z,16.83
2019-02-04T11:04:39.709Z,15.80
2019-02-04T11:07:14.989Z,15.07
2019-02-04T11:09:48.226Z,16.40
2019-02-04T11:12:21.624Z,17.67
2019-02-04T11:14:53.629Z,16.17
2019-02-04T11:17:26.751Z,15.93
2019-02-04T11:19:59.233Z,13.90
2019-02-04T11:22:30.601Z,14.30
2019-02-04T11:25:02.724Z,15.40
2019-02-04T11:27:36.833Z,16.47
2019-02-04T11:30:19.357Z,16.10
2019-02-04T11:32:50.830Z,15.87
2019-02-04T11:35:24.823Z,15.88
2019-02-04T11:37:58.805Z,15.30
2019-02-04T11:40:32.921Z,14.90
2019-02-04T11:43:07.419Z,15.67
2019-02-04T11:45:41.142Z,15.83
2019-02-04T11:48:16.025Z,14.47
2019-02-04T11:50:49.101Z,14.90
2019-02-04T11:53:32.456Z,15.30
2019-02-04T11:55:56.825Z,16.00
2019-02-04T11:58:28.098Z,16.07
2019-02-04T12:01:05.183Z,14.73
2019-02-04T12:03:36.822Z,14.90
2019-02-04T12:06:09.857Z,13.30
2019-02-04T12:08:41.104Z,13.80
2019-02-04T12:11:16.717Z,14.70
2019-02-04T12:13:48.972Z,13.40
2019-02-04T12:16:21.123Z,13.07
2019-02-04T12:18:53.914Z,11.80
2019-02-04T12:21:28.015Z,14.30
2019-02-04T12:24:01.867Z,12.97
2019-02-04T12:26:33.138Z,13.40
2019-02-04T12:29:07.068Z,15.40
2019-02-04T12:31:40.919Z,12.13
2019-02-04T12:34:16.515Z,13.20
2019-02-04T12:36:48.932Z,12.83
2019-02-04T12:39:24.542Z,14.40
2019-02-04T12:41:57.077Z,14.87
2019-02-04T12:44:28.396Z,14.30
2019-02-04T12:47:00.748Z,14.50
2019-02-04T12:49:33.954Z,12.73
2019-02-04T12:52:06.272Z,15.67
2019-02-04T12:54:40.115Z,14.37
2019-02-04T12:57:14.203Z,13.57
2019-02-04T12:59:45.711Z,14.50
2019-02-04T13:02:17.992Z,14.03
2019-02-04T13:04:51.062Z,15.20
2019-02-04T13:07:25.186Z,13.13
2019-02-04T13:09:59.093Z,14.03
2019-02-04T13:12:30.528Z,13.23
2019-02-04T13:15:05.461Z,13.40
2019-02-04T13:17:37.364Z,14.10
2019-02-04T13:20:10.326Z,14.03
2019-02-04T13:22:43.191Z,15.30
2019-02-04T13:25:22.243Z,14.10
2019-02-04T13:27:54.376Z,14.43
2019-02-04T13:30:27.762Z,13.43
2019-02-04T13:32:59.120Z,14.73
2019-02-04T13:35:32.515Z,14.77
2019-02-04T13:38:07.065Z,14.50
2019-02-04T13:40:44.606Z,14.37
2019-02-04T13:43:17.451Z,14.58
2019-02-04T13:45:48.825Z,13.93
2019-02-04T13:48:20.162Z,14.13
2019-02-04T13:50:53.413Z,13.73
2019-02-04T13:53:27.510Z,14.33
2019-02-04T13:56:01.355Z,12.30
2019-02-04T13:58:34.216Z,13.57
2019-02-04T14:01:06.287Z,12.47
2019-02-04T14:03:39.302Z,12.50
2019-02-04T14:06:11.539Z,12.77
2019-02-04T14:08:42.811Z,12.27
2019-02-04T14:11:16.312Z,11.73
2019-02-04T14:13:47.577Z,10.20
2019-02-04T14:16:21.475Z,11.03
2019-02-04T14:18:55.419Z,11.60
2019-02-04T14:21:29.382Z,12.18
2019-02-04T14:24:04.946Z,10.07
2019-02-04T14:26:37.421Z,10.83
2019-02-04T14:29:11.402Z,11.50
2019-02-04T14:31:45.445Z,10.50
2019-02-04T14:34:18.462Z,11.22
2019-02-04T14:36:52.702Z,11.80
2019-02-04T14:39:24.044Z,11.40
2019-02-04T14:41:55.299Z,12.60
2019-02-04T14:44:38.872Z,10.63
2019-02-04T14:47:34.995Z,11.30
2019-02-04T14:50:38.521Z,12.47
2019-02-04T14:53:51.158Z,16.48
2019-02-04T14:56:49.998Z,12.57
2019-02-04T14:59:36.511Z,10.50
2019-02-04T15:02:46.668Z,10.50
2019-02-04T15:05:39.411Z,11.07
2019-02-04T15:08:37.207Z,10.07
2019-02-04T15:11:45.392Z,10.60
2019-02-04T15:15:01.739Z,12.10
2019-02-04T15:17:56.087Z,13.53
2019-02-04T15:21:02.989Z,11.80
2019-02-04T15:24:08.402Z,13.57
2019-02-04T15:27:31.507Z,12.98
2019-02-04T15:30:52.311Z,13.80
2019-02-04T15:33:50.894Z,14.50
2019-02-04T15:37:03.004Z,12.97
2019-02-04T15:40:11.671Z,14.83
2019-02-04T15:43:11.310Z,14.30
2019-02-04T15:46:08.336Z,14.13
2019-02-04T15:49:03.935Z,14.23
2019-02-04T15:51:43.413Z,14.87
2019-02-04T15:54:16.974Z,14.47
2019-02-04T15:56:50.926Z,14.37
2019-02-04T15:59:24.405Z,14.80
2019-02-04T16:01:58.088Z,17.03
2019-02-04T16:04:35.351Z,15.07
2019-02-04T16:07:10.881Z,16.07
2019-02-04T16:09:42.829Z,15.30
2019-02-04T16:12:14.277Z,17.90
2019-02-04T16:14:46.380Z,18.07
2019-02-04T16:17:19.019Z,19.87
2019-02-04T16:19:53.365Z,19.00
2019-02-04T16:22:24.029Z,19.43
2019-02-04T16:24:58.030Z,18.57
2019-02-04T16:27:30.515Z,22.80
2019-02-04T16:30:03.100Z,22.37
2019-02-04T16:32:36.626Z,22.03
2019-02-04T16:35:12.291Z,19.70
2019-02-04T16:37:44.575Z,20.30
2019-02-04T16:40:19.898Z,20.70
2019-02-04T16:42:52.062Z,17.60
2019-02-04T16:45:26.151Z,18.60
2019-02-04T16:47:57.467Z,19.07
2019-02-04T16:50:30.940Z,19.80
2019-02-04T16:53:10.696Z,20.97
2019-02-04T16:55:40.389Z,19.47
2019-02-04T16:58:14.273Z,18.83
2019-02-04T17:00:46.294Z,19.15
2019-02-04T17:03:18.837Z,19.27
2019-02-04T17:05:51.382Z,17.95
2019-02-04T17:08:25.501Z,18.40
2019-02-04T17:10:59.470Z,18.57
2019-02-04T17:13:30.882Z,20.07
2019-02-04T17:16:04.390Z,22.97
2019-02-04T17:18:36.469Z,22.40
2019-02-04T17:21:09.517Z,24.60
2019-02-04T17:23:40.780Z,18.90
2019-02-04T17:26:14.514Z,21.30
2019-02-04T17:28:48.411Z,20.40
2019-02-04T17:31:22.415Z,19.77
2019-02-04T17:33:55.296Z,19.05
2019-02-04T17:36:29.303Z,21.82
2019-02-04T17:39:00.556Z,32.88
2019-02-04T17:41:31.901Z,30.73
2019-02-04T17:44:06.300Z,33.13
2019-02-04T17:46:39.391Z,32.80
2019-02-04T17:49:14.942Z,32.60
2019-02-04T17:51:46.589Z,23.70
2019-02-04T17:54:18.454Z,25.27
2019-02-04T17:56:54.244Z,22.13
2019-02-04T17:59:26.409Z,23.60
2019-02-04T18:01:59.394Z,25.48
2019-02-04T18:04:30.716Z,25.50
2019-02-04T18:07:04.434Z,22.60
2019-02-04T18:09:37.396Z,21.17
2019-02-04T18:12:09.578Z,21.73
2019-02-04T18:14:43.480Z,24.93
2019-02-04T18:17:14.884Z,24.83
2019-02-04T18:19:48.177Z,23.97
2019-02-04T18:22:19.543Z,25.47
2019-02-04T18:24:51.888Z,25.95
2019-02-04T18:27:24.629Z,25.40
2019-02-04T18:29:58.658Z,25.40
2019-02-04T18:32:30.699Z,24.43
2019-02-04T18:35:03.596Z,24.83
2019-02-04T18:37:37.496Z,24.70
2019-02-04T18:40:10.288Z,24.17
2019-02-04T18:42:42.568Z,24.90
2019-02-04T18:45:25.057Z,25.85
2019-02-04T18:47:58.089Z,26.65
2019-02-04T18:50:31.031Z,22.82
2019-02-04T18:53:04.934Z,20.03
2019-02-04T18:55:36.770Z,19.73
2019-02-04T18:58:08.723Z,23.32
2019-02-04T19:00:40.723Z,21.80
2019-02-04T19:03:17.446Z,20.75
2019-02-04T19:05:47.681Z,21.00
2019-02-04T19:08:19.142Z,18.77
2019-02-04T19:10:50.453Z,17.57
2019-02-04T19:13:35.486Z,17.00
2019-02-04T19:15:57.758Z,17.00
2019-02-04T19:18:30.711Z,17.37
2019-02-04T19:21:02.812Z,16.47
2019-02-04T19:23:38.468Z,14.33
2019-02-04T19:26:10.990Z,14.13
2019-02-04T19:28:42.353Z,13.37
2019-02-04T19:31:21.796Z,14.93
2019-02-04T19:33:55.895Z,14.83
2019-02-04T19:36:29.911Z,18.23
2019-02-04T19:39:01.276Z,19.23
2019-02-04T19:41:35.011Z,20.20
2019-02-04T19:44:09.302Z,17.37
2019-02-04T19:46:43.098Z,17.90
2019-02-04T19:49:14.911Z,19.17
2019-02-04T19:51:49.216Z,18.23
2019-02-04T19:54:23.477Z,19.87
2019-02-04T19:56:57.133Z,19.30
2019-02-04T19:59:30.036Z,17.40
2019-02-04T20:02:02.067Z,19.73
2019-02-04T20:04:34.225Z,20.63
2019-02-04T20:07:06.192Z,18.70
2019-02-04T20:09:40.133Z,14.93
2019-02-04T20:12:13.120Z,12.50
2019-02-04T20:14:45.004Z,9.63
2019-02-04T20:17:20.629Z,10.20
2019-02-04T20:19:53.141Z,10.30
2019-02-04T20:22:27.463Z,8.60
2019-02-04T20:25:01.083Z,11.00
2019-02-04T20:27:34.403Z,11.20
2019-02-04T20:30:09.356Z,11.97
2019-02-04T20:32:43.243Z,12.43
2019-02-04T20:35:17.108Z,12.10
2019-02-04T20:37:56.874Z,11.30
2019-02-04T20:40:28.600Z,12.67
2019-02-04T20:43:04.544Z,12.50
2019-02-04T20:45:37.641Z,9.63
2019-02-04T20:48:12.946Z,11.27
2019-02-04T20:50:47.549Z,11.70
2019-02-04T20:53:20.196Z,10.20
2019-02-04T20:55:55.705Z,11.33
2019-02-04T20:58:28.301Z,11.40
2019-02-04T21:01:03.954Z,10.48
2019-02-04T21:03:36.270Z,9.43
2019-02-04T21:06:11.326Z,9.07
2019-02-04T21:08:44.287Z,9.00
2019-02-04T21:11:16.607Z,9.57
2019-02-04T21:13:49.845Z,9.00
2019-02-04T21:16:23.300Z,9.30
2019-02-04T21:18:54.554Z,9.87
2019-02-04T21:21:28.363Z,10.70
2019-02-04T21:24:02.472Z,9.20
2019-02-04T21:26:35.567Z,9.67
2019-02-04T21:29:07.482Z,9.18
2019-02-04T21:31:40.393Z,9.00
2019-02-04T21:34:12.476Z,8.20
2019-02-04T21:36:46.774Z,9.30
2019-02-04T21:39:18.182Z,8.87
2019-02-04T21:41:51.423Z,8.58
2019-02-04T21:44:25.488Z,9.67
2019-02-04T21:46:59.494Z,9.47
2019-02-04T21:49:31.078Z,10.07
2019-02-04T21:52:04.535Z,8.17
2019-02-04T21:54:37.420Z,9.53
2019-02-04T21:57:09.476Z,8.60
2019-02-04T21:59:42.469Z,9.48
2019-02-04T22:02:18.201Z,11.28
2019-02-04T22:04:49.461Z,8.40
2019-02-04T22:07:22.485Z,9.98
2019-02-04T22:09:55.685Z,9.10
2019-02-04T22:12:29.598Z,8.15
2019-02-04T22:15:00.839Z,10.98
2019-02-04T22:17:34.645Z,12.67
2019-02-04T22:20:09.238Z,11.22
2019-02-04T22:22:42.602Z,10.33
2019-02-04T22:25:20.300Z,9.43
2019-02-04T22:27:53.829Z,8.60
2019-02-04T22:30:29.465Z,9.47
2019-02-04T22:33:01.728Z,9.40
2019-02-04T22:35:35.605Z,8.90
2019-02-04T22:38:07.631Z,10.43
2019-02-04T22:40:40.391Z,9.53
2019-02-04T22:43:12.165Z,9.40
2019-02-04T22:45:44.125Z,8.73
2019-02-04T22:48:15.680Z,9.30
2019-02-04T22:50:49.677Z,9.67
2019-02-04T22:53:23.694Z,8.70
2019-02-04T22:55:57.673Z,8.13
2019-02-04T22:58:31.158Z,8.60
2019-02-04T23:01:15.296Z,8.85
2019-02-04T23:03:48.626Z,9.58
2019-02-04T23:06:19.958Z,10.70
2019-02-04T23:08:51.313Z,10.37
2019-02-04T23:11:24.668Z,10.60
2019-02-04T23:13:58.728Z,12.07
2019-02-04T23:16:30.978Z,13.17
2019-02-04T23:19:03.795Z,13.20
2019-02-04T23:21:37.800Z,11.13
2019-02-04T23:24:09.153Z,10.97
2019-02-04T23:26:40.722Z,10.65
2019-02-04T23:29:13.782Z,11.13
2019-02-04T23:31:45.049Z,10.50
2019-02-04T23:34:18.936Z,9.77
2019-02-04T23:36:54.456Z,10.47
2019-02-04T23:39:28.685Z,12.33
2019-02-04T23:42:03.754Z,10.83
2019-02-04T23:44:38.073Z,10.20
2019-02-04T23:47:13.728Z,11.00
2019-02-04T23:49:44.967Z,11.13
2019-02-04T23:52:17.122Z,11.90
2019-02-04T23:54:50.048Z,13.78
2019-02-04T23:57:21.972Z,13.07
2019-02-04T23:59:54.961Z,13.62
